createdAt,value
2023-03-17T00:00:23.757Z,2.57
2023-03-17T00:03:18.048Z,4.00
2023-03-17T00:06:05.328Z,4.17
2023-03-17T00:08:51.394Z,3.77
2023-03-17T00:11:37.686Z,3.70
2023-03-17T00:14:24.387Z,3.93
2023-03-17T00:17:13.077Z,3.17
2023-03-17T00:20:00.850Z,4.00
2023-03-17T00:22:47.274Z,3.67
2023-03-17T00:25:34.328Z,3.33
2023-03-17T00:28:22.176Z,4.07
2023-03-17T00:31:14.501Z,3.03
2023-03-17T00:34:01.057Z,3.83
2023-03-17T00:36:50.206Z,3.30
2023-03-17T00:39:36.865Z,3.93
2023-03-17T00:42:23.326Z,2.87
2023-03-17T00:45:10.191Z,4.20
2023-03-17T00:47:57.031Z,3.50
2023-03-17T00:50:43.855Z,3.87
2023-03-17T00:53:32.015Z,3.17
2023-03-17T00:56:19.804Z,4.00
2023-03-17T00:59:06.873Z,3.23
2023-03-17T01:01:53.596Z,3.67
2023-03-17T01:04:40.140Z,3.60
2023-03-17T01:07:26.478Z,4.00
2023-03-17T01:10:15.634Z,11.17
2023-03-17T01:13:02.865Z,23.60
2023-03-17T01:15:49.672Z,4.33
2023-03-17T01:18:35.802Z,3.50
2023-03-17T01:21:22.578Z,3.80
2023-03-17T01:24:09.742Z,4.00
2023-03-17T01:26:57.490Z,3.83
2023-03-17T01:29:43.848Z,3.77
2023-03-17T01:32:30.566Z,3.47
2023-03-17T01:35:17.884Z,4.17
2023-03-17T01:38:05.844Z,2.90
2023-03-17T01:40:53.452Z,3.20
2023-03-17T01:43:41.620Z,3.93
2023-03-17T01:46:29.393Z,3.27
2023-03-17T01:49:19.330Z,3.33
2023-03-17T01:52:07.627Z,3.47
2023-03-17T01:54:56.699Z,3.60
2023-03-17T01:57:45.622Z,3.13
2023-03-17T02:00:34.288Z,3.03
2023-03-17T02:03:20.713Z,2.93
2023-03-17T02:06:07.314Z,3.87
2023-03-17T02:08:53.714Z,3.10
2023-03-17T02:11:40.670Z,4.27
2023-03-17T02:14:27.036Z,3.33
2023-03-17T02:17:14.950Z,4.13
2023-03-17T02:20:13.052Z,3.43
2023-03-17T02:23:01.877Z,4.03
2023-03-17T02:25:48.515Z,3.40
2023-03-17T02:28:35.573Z,3.60
2023-03-17T02:31:22.319Z,4.13
2023-03-17T02:34:08.583Z,4.30
2023-03-17T02:36:55.078Z,3.97
2023-03-17T02:39:43.164Z,3.53
2023-03-17T02:42:29.542Z,4.57
2023-03-17T02:45:15.783Z,3.67
2023-03-17T02:48:02.757Z,3.90
2023-03-17T02:50:48.978Z,3.70
2023-03-17T02:53:35.511Z,3.83
2023-03-17T02:56:23.710Z,4.63
2023-03-17T02:59:10.514Z,3.40
2023-03-17T03:01:57.264Z,4.57
2023-03-17T03:04:43.582Z,4.07
2023-03-17T03:07:30.077Z,3.83
2023-03-17T03:10:16.532Z,4.70
2023-03-17T03:13:04.168Z,4.90
2023-03-17T03:15:54.096Z,4.17
2023-03-17T03:18:40.544Z,3.93
2023-03-17T03:21:26.618Z,4.33
2023-03-17T03:24:12.917Z,4.53
2023-03-17T03:26:59.101Z,5.67
2023-03-17T03:29:47.102Z,7.30
2023-03-17T03:32:33.458Z,6.90
2023-03-17T03:35:20.014Z,5.80
2023-03-17T03:38:06.777Z,5.90
2023-03-17T03:40:53.004Z,7.17
2023-03-17T03:43:39.177Z,5.97
2023-03-17T03:46:27.138Z,5.63
2023-03-17T03:49:13.407Z,5.10
2023-03-17T03:51:59.728Z,5.67
2023-03-17T03:54:45.906Z,5.27
2023-03-17T03:57:32.123Z,5.80
2023-03-17T04:00:18.819Z,5.37
2023-03-17T04:03:06.677Z,3.50
2023-03-17T04:05:53.170Z,4.17
2023-03-17T04:08:39.259Z,5.00
2023-03-17T04:11:25.914Z,4.73
2023-03-17T04:14:12.685Z,3.47
2023-03-17T04:16:59.222Z,3.13
2023-03-17T04:19:47.102Z,4.43
2023-03-17T04:22:33.848Z,4.43
2023-03-17T04:25:20.178Z,3.93
2023-03-17T04:28:06.652Z,3.93
2023-03-17T04:30:53.276Z,3.40
2023-03-17T04:33:40.460Z,3.40
2023-03-17T04:36:28.269Z,3.90
2023-03-17T04:39:15.557Z,4.33
2023-03-17T04:42:02.360Z,4.53
2023-03-17T04:44:48.932Z,4.70
2023-03-17T04:47:35.398Z,4.93
2023-03-17T04:50:21.652Z,4.13
2023-03-17T04:53:09.228Z,3.30
2023-03-17T04:55:56.595Z,3.83
2023-03-17T04:58:43.072Z,4.57
2023-03-17T05:01:29.304Z,4.07
2023-03-17T05:04:28.832Z,4.17
2023-03-17T05:07:17.664Z,3.43
2023-03-17T05:10:06.634Z,4.53
2023-03-17T05:12:53.517Z,3.93
2023-03-17T05:15:39.883Z,3.13
2023-03-17T05:18:26.528Z,4.67
2023-03-17T05:21:12.912Z,5.97
2023-03-17T05:23:59.455Z,6.50
2023-03-17T05:26:47.218Z,5.33
2023-03-17T05:29:33.787Z,6.07
2023-03-17T05:32:20.190Z,5.73
2023-03-17T05:35:07.005Z,4.03
2023-03-17T05:37:53.477Z,2.47
2023-03-17T05:40:40.036Z,4.20
2023-03-17T05:43:28.058Z,4.07
2023-03-17T05:46:14.876Z,3.63
2023-03-17T05:49:01.599Z,4.80
2023-03-17T05:51:47.871Z,5.87
2023-03-17T05:54:34.112Z,4.47
2023-03-17T05:57:20.593Z,4.60
2023-03-17T06:00:09.483Z,5.27
2023-03-17T06:02:56.839Z,5.03
2023-03-17T06:05:43.345Z,5.13
2023-03-17T06:08:29.825Z,4.87
2023-03-17T06:11:16.149Z,5.80
2023-03-17T06:14:02.385Z,7.03
2023-03-17T06:16:50.162Z,6.47
2023-03-17T06:19:36.511Z,5.63
2023-03-17T06:22:22.619Z,5.90
2023-03-17T06:25:10.223Z,5.20
2023-03-17T06:27:57.724Z,4.60
2023-03-17T06:30:44.001Z,4.73
2023-03-17T06:33:32.702Z,6.07
2023-03-17T06:36:19.249Z,5.13
2023-03-17T06:39:06.340Z,4.83
2023-03-17T06:41:53.668Z,4.30
2023-03-17T06:44:39.990Z,4.17
2023-03-17T06:47:26.484Z,4.17
2023-03-17T06:50:14.376Z,4.53
2023-03-17T06:53:01.086Z,4.00
2023-03-17T06:55:48.225Z,4.43
2023-03-17T06:58:34.783Z,4.27
2023-03-17T07:01:21.142Z,3.60
2023-03-17T07:04:07.831Z,3.93
2023-03-17T07:06:56.084Z,3.73
2023-03-17T07:09:42.231Z,5.23
2023-03-17T07:12:28.967Z,3.40
2023-03-17T07:15:15.544Z,3.47
2023-03-17T07:18:02.292Z,3.97
2023-03-17T07:20:48.392Z,3.77
2023-03-17T07:23:36.268Z,3.97
2023-03-17T07:26:22.873Z,5.27
2023-03-17T07:29:10.229Z,3.83
2023-03-17T07:31:56.489Z,4.83
2023-03-17T07:34:43.045Z,4.87
2023-03-17T07:37:29.579Z,4.23
2023-03-17T07:40:18.488Z,4.40
2023-03-17T07:43:04.649Z,3.77
2023-03-17T07:45:51.101Z,3.37
2023-03-17T07:48:40.956Z,4.83
2023-03-17T07:51:28.284Z,8.47
2023-03-17T07:54:15.976Z,3.57
2023-03-17T07:57:04.250Z,3.70
2023-03-17T07:59:50.754Z,4.00
2023-03-17T08:02:38.437Z,3.30
2023-03-17T08:05:25.571Z,2.90
2023-03-17T08:08:12.709Z,3.40
2023-03-17T08:11:02.057Z,6.57
2023-03-17T08:13:50.187Z,4.33
2023-03-17T08:16:37.655Z,3.77
2023-03-17T08:19:24.379Z,3.10
2023-03-17T08:22:11.436Z,3.43
2023-03-17T08:24:58.741Z,3.00
2023-03-17T08:27:45.096Z,3.93
2023-03-17T08:30:33.868Z,3.40
2023-03-17T08:33:20.749Z,3.77
2023-03-17T08:36:09.363Z,4.70
2023-03-17T08:38:56.093Z,3.37
2023-03-17T08:41:42.368Z,2.93
2023-03-17T08:44:28.607Z,3.33
2023-03-17T08:47:16.424Z,4.17
2023-03-17T08:50:02.526Z,3.40
2023-03-17T08:52:49.831Z,5.30
2023-03-17T08:55:36.304Z,4.33
2023-03-17T08:58:22.618Z,3.53
2023-03-17T09:01:09.476Z,3.10
2023-03-17T09:03:57.230Z,3.33
2023-03-17T09:07:01.241Z,4.20
2023-03-17T09:09:49.085Z,4.20
2023-03-17T09:12:35.672Z,3.23
2023-03-17T09:15:22.140Z,3.33
2023-03-17T09:18:09.043Z,3.30
2023-03-17T09:20:56.895Z,3.10
2023-03-17T09:23:43.435Z,6.60
2023-03-17T09:26:30.043Z,10.60
2023-03-17T09:29:16.592Z,14.93
2023-03-17T09:32:03.173Z,16.57
2023-03-17T09:34:51.592Z,4.50
2023-03-17T09:37:39.627Z,4.30
2023-03-17T09:40:32.528Z,4.40
2023-03-17T09:43:26.057Z,5.50
2023-03-17T09:46:17.867Z,3.63
2023-03-17T09:49:08.537Z,5.03
2023-03-17T09:51:54.963Z,5.63
2023-03-17T09:54:42.767Z,4.83
2023-03-17T09:57:31.632Z,3.60
2023-03-17T10:00:19.266Z,4.10
2023-03-17T10:03:08.192Z,3.37
2023-03-17T10:05:55.176Z,4.27
2023-03-17T10:08:46.393Z,4.03
2023-03-17T10:11:38.706Z,4.43
2023-03-17T10:14:30.606Z,3.80
2023-03-17T10:17:18.922Z,3.80
2023-03-17T10:20:08.743Z,4.17
2023-03-17T10:22:58.148Z,3.63
2023-03-17T10:25:44.579Z,4.17
2023-03-17T10:28:35.830Z,2.93
2023-03-17T10:31:28.355Z,4.07
2023-03-17T10:34:15.992Z,2.90
2023-03-17T10:37:05.540Z,2.67
2023-03-17T10:39:52.829Z,2.67
2023-03-17T10:42:47.099Z,2.57
2023-03-17T10:45:37.347Z,2.87
2023-03-17T10:48:25.460Z,2.97
2023-03-17T10:51:15.270Z,3.07
2023-03-17T10:54:04.005Z,2.97
2023-03-17T10:56:51.732Z,2.87
2023-03-17T10:59:42.110Z,2.60
2023-03-17T11:02:36.085Z,3.40
2023-03-17T11:05:23.145Z,3.20
2023-03-17T11:08:12.642Z,2.67
2023-03-17T11:10:59.380Z,2.97
2023-03-17T11:13:45.977Z,3.77
2023-03-17T11:16:33.790Z,3.90
2023-03-17T11:19:23.836Z,3.27
2023-03-17T11:22:12.661Z,2.63
2023-03-17T11:25:04.421Z,2.93
2023-03-17T11:27:53.860Z,2.87
2023-03-17T11:30:42.965Z,3.47
2023-03-17T11:33:34.838Z,3.67
2023-03-17T11:36:29.209Z,2.70
2023-03-17T11:39:17.470Z,2.80
2023-03-17T11:42:08.464Z,2.83
2023-03-17T11:45:13.148Z,3.07
2023-03-17T11:48:07.801Z,2.53
2023-03-17T11:50:56.642Z,2.40
2023-03-17T11:53:52.722Z,2.53
2023-03-17T11:56:42.058Z,3.20
2023-03-17T11:59:31.568Z,3.23
2023-03-17T12:02:21.738Z,3.47
2023-03-17T12:05:10.117Z,3.00
2023-03-17T12:07:59.048Z,2.80
2023-03-17T12:10:49.632Z,3.00
2023-03-17T12:13:40.288Z,5.03
2023-03-17T12:16:29.490Z,6.83
2023-03-17T12:19:19.547Z,3.67
2023-03-17T12:22:08.261Z,3.17
2023-03-17T12:24:58.230Z,3.40
2023-03-17T12:27:51.310Z,4.03
2023-03-17T12:30:45.641Z,3.20
2023-03-17T12:33:35.004Z,3.37
2023-03-17T12:36:21.941Z,3.03
2023-03-17T12:39:10.339Z,2.97
2023-03-17T12:42:05.520Z,3.50
2023-03-17T12:45:01.718Z,3.57
2023-03-17T12:47:56.848Z,3.23
2023-03-17T12:50:51.047Z,2.90
2023-03-17T12:53:39.987Z,3.80
2023-03-17T12:56:28.520Z,3.60
2023-03-17T12:59:17.311Z,3.07
2023-03-17T13:02:15.457Z,2.60
2023-03-17T13:05:01.925Z,2.93
2023-03-17T13:07:49.344Z,3.20
2023-03-17T13:10:40.894Z,5.70
2023-03-17T13:13:41.800Z,2.63
2023-03-17T13:16:29.870Z,2.80
2023-03-17T13:19:20.231Z,3.23
2023-03-17T13:22:25.986Z,2.87
2023-03-17T13:25:17.599Z,3.20
2023-03-17T13:28:24.330Z,3.40
2023-03-17T13:31:12.513Z,2.50
2023-03-17T13:34:03.832Z,3.00
2023-03-17T13:36:59.173Z,3.10
2023-03-17T13:40:10.677Z,2.60
2023-03-17T13:43:09.502Z,3.17
2023-03-17T13:45:56.870Z,2.20
2023-03-17T13:48:43.039Z,2.90
2023-03-17T13:51:33.840Z,2.70
2023-03-17T13:54:30.663Z,2.10
2023-03-17T13:57:24.556Z,3.83
2023-03-17T14:00:21.059Z,2.63
2023-03-17T14:03:12.201Z,2.80
2023-03-17T14:05:59.017Z,3.23
2023-03-17T14:08:49.636Z,2.40
2023-03-17T14:11:39.264Z,2.60
2023-03-17T14:14:33.225Z,2.93
2023-03-17T14:17:21.231Z,3.27
2023-03-17T14:20:09.586Z,2.90
2023-03-17T14:22:56.892Z,3.53
2023-03-17T14:25:43.986Z,4.03
2023-03-17T14:28:32.556Z,3.60
2023-03-17T14:31:23.024Z,3.17
2023-03-17T14:34:13.772Z,2.83
2023-03-17T14:37:02.231Z,2.73
2023-03-17T14:39:49.307Z,2.03
2023-03-17T14:42:35.877Z,2.37
2023-03-17T14:45:28.478Z,2.63
2023-03-17T14:48:15.747Z,2.80
2023-03-17T14:51:05.691Z,2.27
2023-03-17T14:53:53.065Z,2.60
2023-03-17T14:56:41.921Z,2.43
2023-03-17T14:59:33.730Z,3.17
2023-03-17T15:02:24.133Z,2.60
2023-03-17T15:05:22.886Z,3.20
2023-03-17T15:08:27.789Z,3.20
2023-03-17T15:11:21.953Z,2.87
2023-03-17T15:14:16.187Z,1.97
2023-03-17T15:17:04.078Z,2.63
2023-03-17T15:19:52.688Z,3.20
2023-03-17T15:22:42.564Z,3.00
2023-03-17T15:25:34.439Z,2.20
2023-03-17T15:28:21.412Z,2.90
2023-03-17T15:31:12.874Z,2.77
2023-03-17T15:33:59.697Z,4.17
2023-03-17T15:36:47.671Z,4.97
2023-03-17T15:39:34.027Z,3.33
2023-03-17T15:42:20.957Z,3.53
2023-03-17T15:45:07.969Z,2.93
2023-03-17T15:47:55.499Z,3.40
2023-03-17T15:50:42.535Z,3.63
2023-03-17T15:53:32.092Z,3.93
2023-03-17T15:56:20.526Z,5.27
2023-03-17T15:59:07.006Z,1.93
2023-03-17T16:01:53.498Z,4.10
2023-03-17T16:04:40.138Z,6.03
2023-03-17T16:07:27.074Z,2.97
2023-03-17T16:10:18.241Z,2.73
2023-03-17T16:13:05.398Z,2.70
2023-03-17T16:15:54.748Z,2.97
2023-03-17T16:18:41.842Z,2.50
2023-03-17T16:21:29.885Z,4.13
2023-03-17T16:24:18.946Z,3.83
2023-03-17T16:27:12.042Z,4.13
2023-03-17T16:29:58.461Z,4.67
2023-03-17T16:32:44.983Z,4.40
2023-03-17T16:35:31.562Z,4.20
2023-03-17T16:38:20.419Z,5.13
2023-03-17T16:41:08.202Z,4.73
2023-03-17T16:44:00.069Z,4.67
2023-03-17T16:46:46.698Z,4.77
2023-03-17T16:49:32.995Z,3.80
2023-03-17T16:52:19.563Z,4.47
2023-03-17T16:55:08.118Z,3.80
2023-03-17T16:57:56.522Z,6.80
2023-03-17T17:00:44.871Z,10.23
2023-03-17T17:03:32.448Z,5.87
2023-03-17T17:06:19.671Z,5.07
2023-03-17T17:09:06.130Z,6.30
2023-03-17T17:11:52.514Z,4.67
2023-03-17T17:14:38.882Z,3.83
2023-03-17T17:17:26.524Z,4.00
2023-03-17T17:20:15.840Z,7.93
2023-03-17T17:23:03.174Z,4.93
2023-03-17T17:25:50.312Z,7.07
2023-03-17T17:28:39.421Z,6.20
2023-03-17T17:31:26.044Z,4.83
2023-03-17T17:34:13.535Z,7.37
2023-03-17T17:37:00.178Z,8.90
2023-03-17T17:39:46.218Z,38.23
2023-03-17T17:42:32.819Z,25.57
2023-03-17T17:45:20.261Z,36.87
2023-03-17T17:48:06.617Z,16.33
2023-03-17T17:50:54.869Z,19.73
2023-03-17T17:53:41.694Z,50.60
2023-03-17T17:56:28.130Z,18.53
2023-03-17T17:59:14.625Z,7.83
2023-03-17T18:02:01.253Z,7.60
2023-03-17T18:04:47.824Z,26.67
2023-03-17T18:07:35.825Z,65.63
2023-03-17T18:10:24.229Z,45.50
2023-03-17T18:13:10.759Z,25.07
2023-03-17T18:15:57.109Z,24.20
2023-03-17T18:18:45.756Z,20.83
2023-03-17T18:21:32.173Z,18.73
2023-03-17T18:24:19.976Z,21.30
2023-03-17T18:27:06.572Z,20.37
2023-03-17T18:29:54.272Z,17.73
2023-03-17T18:32:41.667Z,17.10
2023-03-17T18:35:29.857Z,15.57
2023-03-17T18:38:16.655Z,18.33
2023-03-17T18:41:04.721Z,15.43
2023-03-17T18:43:51.156Z,14.80
2023-03-17T18:46:37.446Z,15.83
2023-03-17T18:49:27.109Z,15.43
2023-03-17T18:52:13.883Z,13.13
2023-03-17T18:55:00.479Z,13.83
2023-03-17T18:57:48.309Z,17.37
2023-03-17T19:00:34.866Z,43.70
2023-03-17T19:03:21.122Z,35.67
2023-03-17T19:06:11.529Z,33.07
2023-03-17T19:08:58.073Z,26.70
2023-03-17T19:11:44.459Z,24.50
2023-03-17T19:14:32.367Z,18.03
2023-03-17T19:17:18.885Z,11.23
2023-03-17T19:20:06.110Z,13.60
2023-03-17T19:22:53.834Z,11.30
2023-03-17T19:25:40.126Z,7.97
2023-03-17T19:28:26.972Z,8.10
2023-03-17T19:31:14.640Z,5.93
2023-03-17T19:34:01.146Z,8.17
2023-03-17T19:36:48.242Z,7.33
2023-03-17T19:39:34.586Z,8.03
2023-03-17T19:42:21.173Z,7.17
2023-03-17T19:45:08.437Z,11.13
2023-03-17T19:47:56.157Z,11.50
2023-03-17T19:50:42.234Z,12.17
2023-03-17T19:53:28.819Z,12.20
2023-03-17T19:56:15.420Z,11.67
2023-03-17T19:59:02.274Z,10.87
2023-03-17T20:01:49.219Z,7.10
2023-03-17T20:04:37.448Z,6.47
2023-03-17T20:07:24.079Z,8.77
2023-03-17T20:10:11.876Z,9.70
2023-03-17T20:12:58.375Z,8.10
2023-03-17T20:15:45.202Z,9.87
2023-03-17T20:18:32.210Z,13.60
2023-03-17T20:21:20.044Z,12.27
2023-03-17T20:24:07.001Z,10.53
2023-03-17T20:26:54.773Z,10.37
2023-03-17T20:29:41.135Z,12.83
2023-03-17T20:32:27.733Z,8.23
2023-03-17T20:35:14.126Z,7.23
2023-03-17T20:38:02.175Z,6.33
2023-03-17T20:40:48.446Z,7.10
2023-03-17T20:43:36.344Z,6.70
2023-03-17T20:46:23.681Z,5.30
2023-03-17T20:49:10.456Z,4.80
2023-03-17T20:51:56.491Z,5.07
2023-03-17T20:54:45.672Z,4.63
2023-03-17T20:57:32.776Z,5.17
2023-03-17T21:00:20.345Z,4.70
2023-03-17T21:03:07.070Z,4.00
2023-03-17T21:05:54.452Z,4.90
2023-03-17T21:08:40.448Z,5.70
2023-03-17T21:11:28.381Z,6.73
2023-03-17T21:14:14.522Z,5.37
2023-03-17T21:17:01.303Z,7.23
2023-03-17T21:19:47.806Z,5.07
2023-03-17T21:22:36.320Z,5.20
2023-03-17T21:25:23.484Z,9.37
2023-03-17T21:28:11.683Z,6.57
2023-03-17T21:30:58.080Z,6.27
2023-03-17T21:33:44.521Z,6.73
2023-03-17T21:36:31.298Z,8.43
2023-03-17T21:39:17.772Z,7.37
2023-03-17T21:42:05.316Z,7.20
2023-03-17T21:44:53.751Z,6.73
2023-03-17T21:47:41.270Z,7.97
2023-03-17T21:50:27.481Z,6.60
2023-03-17T21:53:15.831Z,6.13
2023-03-17T21:56:02.129Z,4.27
2023-03-17T21:58:49.322Z,5.37
2023-03-17T22:01:37.033Z,6.37
2023-03-17T22:04:23.401Z,5.97
2023-03-17T22:07:09.967Z,6.40
2023-03-17T22:09:57.859Z,6.00
2023-03-17T22:12:44.184Z,5.93
2023-03-17T22:15:30.574Z,5.10
2023-03-17T22:18:18.404Z,5.23
2023-03-17T22:21:05.496Z,5.83
2023-03-17T22:23:51.907Z,4.13
2023-03-17T22:26:38.141Z,4.73
2023-03-17T22:29:24.465Z,3.97
2023-03-17T22:32:11.038Z,3.83
2023-03-17T22:34:58.778Z,4.40
2023-03-17T22:37:45.070Z,3.90
2023-03-17T22:40:31.599Z,4.27
2023-03-17T22:43:18.094Z,4.03
2023-03-17T22:46:04.352Z,3.70
2023-03-17T22:48:51.037Z,5.20
2023-03-17T22:51:41.020Z,4.27
2023-03-17T22:54:27.741Z,4.33
2023-03-17T22:57:14.235Z,4.00
2023-03-17T23:00:00.489Z,3.10
2023-03-17T23:02:47.426Z,2.93
2023-03-17T23:05:33.831Z,3.67
2023-03-17T23:08:22.102Z,3.83
2023-03-17T23:11:10.601Z,3.40
2023-03-17T23:13:57.416Z,3.17
2023-03-17T23:16:45.057Z,3.87
2023-03-17T23:19:31.912Z,3.87
2023-03-17T23:22:18.367Z,3.87
2023-03-17T23:25:07.467Z,4.67
2023-03-17T23:27:54.094Z,4.00
2023-03-17T23:30:41.390Z,4.17
2023-03-17T23:33:28.416Z,4.03
2023-03-17T23:36:15.614Z,4.50
2023-03-17T23:39:03.374Z,3.53
2023-03-17T23:41:51.301Z,3.77
2023-03-17T23:44:37.733Z,4.50
2023-03-17T23:47:24.645Z,3.37
2023-03-17T23:50:12.338Z,4.00
2023-03-17T23:52:59.141Z,3.43
2023-03-17T23:55:45.453Z,3.23
2023-03-17T23:58:33.348Z,3.37
